This is the latest recevied weather packets stored in our database for station/object MeshWX-1. If no packets are shown the sender has not sent any weather packets the latest 10 day(s).
| Time | Temp. | Humidity | Pressure | Rain* | Wind** | Luminosity | Snow |
|---|---|---|---|---|---|---|---|
| 1787736378 | 33.89° C | 37% | 998.1 hPa | - | - | - | - |
| 1787734924 | 33.89° C | 37% | 998.1 hPa | - | - | - | - |
| 1787734865 | 33.89° C | 37% | 998.1 hPa | - | - | - | - |
| 1787734577 | 33.89° C | 37% | 998.1 hPa | - | - | - | - |
| 1787733127 | 33.89° C | 37% | 998.1 hPa | - | - | - | - |
| 1787733064 | 34.44° C | 39% | 998.2 hPa | - | - | - | - |
| 1787732777 | 34.44° C | 39% | 998.2 hPa | - | - | - | - |
| 1787731322 | 32.78° C | 45% | 998.2 hPa | - | - | - | - |
| 1787731264 | 32.78° C | 45% | 998.2 hPa | - | - | - | - |
| 1787730916 | 32.78° C | 45% | 998.2 hPa | - | - | - | - |
| 1787729479 | 32.78° C | 45% | 998.2 hPa | - | - | - | - |
| 1787729408 | 26.67° C | 61% | 997.9 hPa | - | - | - | - |
| 1787727607 | 26.67° C | 61% | 997.9 hPa | - | - | - | - |
| 1787727484 | 25° C | 62% | 997.7 hPa | - | - | - | - |
| 1787727076 | 25° C | 62% | 997.7 hPa | - | - | - | - |
| 1787725753 | 25° C | 62% | 997.7 hPa | - | - | - | - |
| 1787725624 | 27.22° C | 58% | 997.8 hPa | - | - | - | - |
| 1787725155 | 27.22° C | 58% | 997.8 hPa | - | - | - | - |
| 1787723898 | 27.22° C | 58% | 997.8 hPa | - | - | - | - |
| 1787723704 | 26.11° C | 64% | 997.7 hPa | - | - | - | - |
| 1787723295 | 26.11° C | 64% | 997.7 hPa | - | - | - | - |
| 1787722985 | 26.11° C | 64% | 997.7 hPa | - | - | - | - |
| 1787722044 | 26.11° C | 64% | 997.7 hPa | - | - | - | - |
| 1787721844 | 23.89° C | 67% | 997.7 hPa | - | - | - | - |
| 1787721436 | 23.89° C | 67% | 997.7 hPa | - | - | - | - |
* Rain since midnight (hover to see other rain measurements)
** Current wind speed in m/s (hover to see current wind gust speed)